sensor_id;sensor_type;location;lat;lon;timestamp;pressure;altitude;pressure_sealevel;temperature
70668;BMP280;58242;51.250;-1.118;2023-02-13T00:02:21;102188.56;;;13.57
70668;BMP280;58242;51.250;-1.118;2023-02-13T00:04:46;102181.63;;;13.56
70668;BMP280;58242;51.250;-1.118;2023-02-13T00:07:12;102190.19;;;13.58
70668;BMP280;58242;51.250;-1.118;2023-02-13T00:09:37;102186.41;;;13.59
70668;BMP280;58242;51.250;-1.118;2023-02-13T00:12:04;102181.03;;;13.59
70668;BMP280;58242;51.250;-1.118;2023-02-13T00:14:30;102178.84;;;13.61
70668;BMP280;58242;51.250;-1.118;2023-02-13T00:16:55;102177.47;;;13.64
70668;BMP280;58242;51.250;-1.118;2023-02-13T00:19:20;102174.78;;;13.64
70668;BMP280;58242;51.250;-1.118;2023-02-13T00:21:46;102166.72;;;13.64
70668;BMP280;58242;51.250;-1.118;2023-02-13T00:24:11;102159.75;;;13.63
70668;BMP280;58242;51.250;-1.118;2023-02-13T00:26:36;102161.41;;;13.59
70668;BMP280;58242;51.250;-1.118;2023-02-13T00:29:04;102157.94;;;13.58
70668;BMP280;58242;51.250;-1.118;2023-02-13T00:31:29;102155.25;;;13.58
70668;BMP280;58242;51.250;-1.118;2023-02-13T00:33:54;102151.75;;;13.58
70668;BMP280;58242;51.250;-1.118;2023-02-13T00:36:21;102151.75;;;13.58
70668;BMP280;58242;51.250;-1.118;2023-02-13T00:38:47;102150.94;;;13.57
70668;BMP280;58242;51.250;-1.118;2023-02-13T00:41:13;102159.88;;;13.53
70668;BMP280;58242;51.250;-1.118;2023-02-13T00:43:40;102153.53;;;13.49
70668;BMP280;58242;51.250;-1.118;2023-02-13T00:46:06;102143.84;;;13.48
70668;BMP280;58242;51.250;-1.118;2023-02-13T00:48:32;102145.47;;;13.49
70668;BMP280;58242;51.250;-1.118;2023-02-13T00:50:58;102145.16;;;13.51
70668;BMP280;58242;51.250;-1.118;2023-02-13T00:53:24;102145.16;;;13.51
70668;BMP280;58242;51.250;-1.118;2023-02-13T00:55:50;102140.59;;;13.51
70668;BMP280;58242;51.250;-1.118;2023-02-13T00:58:16;102142.97;;;13.52
70668;BMP280;58242;51.250;-1.118;2023-02-13T01:00:42;102143.75;;;13.53
70668;BMP280;58242;51.250;-1.118;2023-02-13T01:03:07;102152.94;;;13.52
70668;BMP280;58242;51.250;-1.118;2023-02-13T01:05:33;102137.91;;;13.51
70668;BMP280;58242;51.250;-1.118;2023-02-13T01:07:58;102144.34;;;13.50
70668;BMP280;58242;51.250;-1.118;2023-02-13T01:10:24;102148.16;;;13.49
70668;BMP280;58242;51.250;-1.118;2023-02-13T01:12:50;102146.56;;;13.48
70668;BMP280;58242;51.250;-1.118;2023-02-13T01:15:16;102150.31;;;13.47
70668;BMP280;58242;51.250;-1.118;2023-02-13T01:17:41;102156.78;;;13.46
70668;BMP280;58242;51.250;-1.118;2023-02-13T01:20:08;102151.50;;;13.41
70668;BMP280;58242;51.250;-1.118;2023-02-13T01:22:34;102154.25;;;13.36
70668;BMP280;58242;51.250;-1.118;2023-02-13T01:24:59;102157.81;;;13.32
70668;BMP280;58242;51.250;-1.118;2023-02-13T01:27:26;102143.91;;;13.30
70668;BMP280;58242;51.250;-1.118;2023-02-13T01:29:52;102148.75;;;13.28
70668;BMP280;58242;51.250;-1.118;2023-02-13T01:32:17;102145.84;;;13.25
70668;BMP280;58242;51.250;-1.118;2023-02-13T01:34:42;102149.03;;;13.27
70668;BMP280;58242;51.250;-1.118;2023-02-13T01:37:08;102146.13;;;13.23
70668;BMP280;58242;51.250;-1.118;2023-02-13T01:39:33;102144.63;;;13.17
70668;BMP280;58242;51.250;-1.118;2023-02-13T01:41:58;102145.47;;;13.13
70668;BMP280;58242;51.250;-1.118;2023-02-13T01:44:52;102147.44;;;13.08
70668;BMP280;58242;51.250;-1.118;2023-02-13T01:47:37;102148.81;;;13.05
70668;BMP280;58242;51.250;-1.118;2023-02-13T01:52:40;102154.25;;;13.00
70668;BMP280;58242;51.250;-1.118;2023-02-13T01:55:07;102154.25;;;13.00
70668;BMP280;58242;51.250;-1.118;2023-02-13T01:57:33;102156.94;;;13.00
70668;BMP280;58242;51.250;-1.118;2023-02-13T02:00:05;102159.63;;;13.00
70668;BMP280;58242;51.250;-1.118;2023-02-13T02:02:35;102156.44;;;12.99
70668;BMP280;58242;51.250;-1.118;2023-02-13T02:05:03;102162.63;;;12.99
70668;BMP280;58242;51.250;-1.118;2023-02-13T02:07:30;102157.25;;;12.99
70668;BMP280;58242;51.250;-1.118;2023-02-13T02:10:02;102165.81;;;13.01
70668;BMP280;58242;51.250;-1.118;2023-02-13T02:12:41;102162.03;;;13.02
70668;BMP280;58242;51.250;-1.118;2023-02-13T02:15:08;102163.91;;;13.01
70668;BMP280;58242;51.250;-1.118;2023-02-13T02:17:33;102158.53;;;13.01
70668;BMP280;58242;51.250;-1.118;2023-02-13T02:43:22;102140.38;;;12.76
70668;BMP280;58242;51.250;-1.118;2023-02-13T02:48:58;102137.69;;;12.76
70668;BMP280;58242;51.250;-1.118;2023-02-13T02:51:54;102137.91;;;12.79
70668;BMP280;58242;51.250;-1.118;2023-02-13T02:54:33;102139.81;;;12.79
70668;BMP280;58242;51.250;-1.118;2023-02-13T02:57:24;102139.81;;;12.79
70668;BMP280;58242;51.250;-1.118;2023-02-13T03:00:13;102140.59;;;12.79
70668;BMP280;58242;51.250;-1.118;2023-02-13T03:02:57;102136.84;;;12.80
70668;BMP280;58242;51.250;-1.118;2023-02-13T03:05:43;102137.34;;;12.82
70668;BMP280;58242;51.250;-1.118;2023-02-13T03:08:28;102124.13;;;12.85
70668;BMP280;58242;51.250;-1.118;2023-02-13T03:11:12;102125.47;;;12.88
70668;BMP280;58242;51.250;-1.118;2023-02-13T03:13:57;102122.19;;;12.91
70668;BMP280;58242;51.250;-1.118;2023-02-13T03:16:24;102125.63;;;12.96
70668;BMP280;58242;51.250;-1.118;2023-02-13T03:25:11;102122.56;;;13.02
70668;BMP280;58242;51.250;-1.118;2023-02-13T03:27:49;102118.47;;;13.05
70668;BMP280;58242;51.250;-1.118;2023-02-13T03:42:11;102108.84;;;13.04
70668;BMP280;58242;51.250;-1.118;2023-02-13T03:44:35;102113.41;;;13.03
70668;BMP280;58242;51.250;-1.118;2023-02-13T03:47:04;102105.91;;;13.00
70668;BMP280;58242;51.250;-1.118;2023-02-13T03:52:23;102105.44;;;12.99
70668;BMP280;58242;51.250;-1.118;2023-02-13T03:54:57;102104.34;;;13.00
70668;BMP280;58242;51.250;-1.118;2023-02-13T03:57:44;102099.25;;;12.98
70668;BMP280;58242;51.250;-1.118;2023-02-13T04:00:33;102101.13;;;12.98
70668;BMP280;58242;51.250;-1.118;2023-02-13T04:03:10;102097.38;;;12.99
70668;BMP280;58242;51.250;-1.118;2023-02-13T04:05:48;102102.16;;;13.01
70668;BMP280;58242;51.250;-1.118;2023-02-13T04:08:14;102094.09;;;13.01
70668;BMP280;58242;51.250;-1.118;2023-02-13T04:10:49;102094.63;;;13.03
70668;BMP280;58242;51.250;-1.118;2023-02-13T04:13:22;102087.38;;;13.04
70668;BMP280;58242;51.250;-1.118;2023-02-13T04:16:03;102082.28;;;13.02
70668;BMP280;58242;51.250;-1.118;2023-02-13T04:18:31;102082.28;;;13.02
70668;BMP280;58242;51.250;-1.118;2023-02-13T04:21:01;102088.13;;;13.04
70668;BMP280;58242;51.250;-1.118;2023-02-13T04:23:27;102087.66;;;13.02
70668;BMP280;58242;51.250;-1.118;2023-02-13T04:25:54;102089.25;;;13.03
70668;BMP280;58242;51.250;-1.118;2023-02-13T04:28:21;102081.47;;;13.02
70668;BMP280;58242;51.250;-1.118;2023-02-13T04:30:46;102096.78;;;13.01
70668;BMP280;58242;51.250;-1.118;2023-02-13T04:33:12;102094.41;;;13.00
70668;BMP280;58242;51.250;-1.118;2023-02-13T04:35:37;102088.25;;;13.00
70668;BMP280;58242;51.250;-1.118;2023-02-13T04:38:02;102096.78;;;13.01
70668;BMP280;58242;51.250;-1.118;2023-02-13T04:40:28;102096.78;;;13.01
70668;BMP280;58242;51.250;-1.118;2023-02-13T04:42:53;102087.66;;;13.02
70668;BMP280;58242;51.250;-1.118;2023-02-13T04:45:19;102086.03;;;13.01
70668;BMP280;58242;51.250;-1.118;2023-02-13T04:47:52;102090.91;;;13.00
70668;BMP280;58242;51.250;-1.118;2023-02-13T04:50:18;102092.59;;;12.96
70668;BMP280;58242;51.250;-1.118;2023-02-13T04:52:43;102095.56;;;12.94
70668;BMP280;58242;51.250;-1.118;2023-02-13T04:55:09;102097.44;;;12.94
70668;BMP280;58242;51.250;-1.118;2023-02-13T04:57:34;102089.97;;;12.91
70668;BMP280;58242;51.250;-1.118;2023-02-13T04:59:59;102093.72;;;12.90
70668;BMP280;58242;51.250;-1.118;2023-02-13T05:02:25;102087.06;;;12.87
70668;BMP280;58242;51.250;-1.118;2023-02-13T05:04:50;102088.97;;;12.87
70668;BMP280;58242;51.250;-1.118;2023-02-13T05:07:15;102086.84;;;12.84
70668;BMP280;58242;51.250;-1.118;2023-02-13T05:09:41;102093.59;;;12.82
70668;BMP280;58242;51.250;-1.118;2023-02-13T05:12:06;102095.50;;;12.81
70668;BMP280;58242;51.250;-1.118;2023-02-13T05:14:31;102097.66;;;12.79
70668;BMP280;58242;51.250;-1.118;2023-02-13T05:16:57;102082.13;;;12.76
70668;BMP280;58242;51.250;-1.118;2023-02-13T05:19:22;102088.09;;;12.73
70668;BMP280;58242;51.250;-1.118;2023-02-13T05:21:47;102089.66;;;12.74
70668;BMP280;58242;51.250;-1.118;2023-02-13T05:24:31;102088.91;;;12.74
70668;BMP280;58242;51.250;-1.118;2023-02-13T05:26:56;102093.16;;;12.75
70668;BMP280;58242;51.250;-1.118;2023-02-13T05:29:22;102087.50;;;12.76
70668;BMP280;58242;51.250;-1.118;2023-02-13T05:31:49;102096.06;;;12.78
70668;BMP280;58242;51.250;-1.118;2023-02-13T05:34:15;102088.31;;;12.77
70668;BMP280;58242;51.250;-1.118;2023-02-13T05:36:41;102083.75;;;12.77
70668;BMP280;58242;51.250;-1.118;2023-02-13T05:39:06;102081.56;;;12.79
70668;BMP280;58242;51.250;-1.118;2023-02-13T05:41:32;102083.16;;;12.80
70668;BMP280;58242;51.250;-1.118;2023-02-13T05:43:57;102081.56;;;12.79
70668;BMP280;58242;51.250;-1.118;2023-02-13T05:46:22;102082.63;;;12.78
70668;BMP280;58242;51.250;-1.118;2023-02-13T05:48:48;102080.47;;;12.80
70668;BMP280;58242;51.250;-1.118;2023-02-13T05:51:13;102083.16;;;12.80
70668;BMP280;58242;51.250;-1.118;2023-02-13T05:53:39;102084.75;;;12.81
70668;BMP280;58242;51.250;-1.118;2023-02-13T05:56:05;102084.75;;;12.81
70668;BMP280;58242;51.250;-1.118;2023-02-13T05:58:31;102082.84;;;12.82
70668;BMP280;58242;51.250;-1.118;2023-02-13T06:00:57;102082.56;;;12.83
70668;BMP280;58242;51.250;-1.118;2023-02-13T06:03:23;102086.34;;;12.82
70668;BMP280;58242;51.250;-1.118;2023-02-13T06:05:49;102087.44;;;12.81
70668;BMP280;58242;51.250;-1.118;2023-02-13T06:08:15;102087.44;;;12.81
70668;BMP280;58242;51.250;-1.118;2023-02-13T06:10:40;102078.59;;;12.81
70668;BMP280;58242;51.250;-1.118;2023-02-13T06:13:05;102079.41;;;12.81
70668;BMP280;58242;51.250;-1.118;2023-02-13T06:15:31;102077.78;;;12.80
70668;BMP280;58242;51.250;-1.118;2023-02-13T06:17:56;102073.50;;;12.79
70668;BMP280;58242;51.250;-1.118;2023-02-13T06:20:21;102077.25;;;12.78
70668;BMP280;58242;51.250;-1.118;2023-02-13T06:22:50;102072.22;;;12.77
70668;BMP280;58242;51.250;-1.118;2023-02-13T06:25:16;102072.78;;;12.74
70668;BMP280;58242;51.250;-1.118;2023-02-13T06:27:41;102075.53;;;12.69
70668;BMP280;58242;51.250;-1.118;2023-02-13T06:30:07;102074.53;;;12.65
70668;BMP280;58242;51.250;-1.118;2023-02-13T06:32:32;102069.44;;;12.64
70668;BMP280;58242;51.250;-1.118;2023-02-13T06:34:58;102074.31;;;12.62
70668;BMP280;58242;51.250;-1.118;2023-02-13T06:37:23;102069.22;;;12.60
70668;BMP280;58242;51.250;-1.118;2023-02-13T06:39:48;102066.81;;;12.59
70668;BMP280;58242;51.250;-1.118;2023-02-13T06:42:14;102073.84;;;12.55
70668;BMP280;58242;51.250;-1.118;2023-02-13T06:44:39;102068.47;;;12.55
70668;BMP280;58242;51.250;-1.118;2023-02-13T06:47:04;102073.84;;;12.55
70668;BMP280;58242;51.250;-1.118;2023-02-13T06:49:29;102068.16;;;12.56
70668;BMP280;58242;51.250;-1.118;2023-02-13T06:51:55;102064.69;;;12.56
70668;BMP280;58242;51.250;-1.118;2023-02-13T06:54:20;102068.47;;;12.55
70668;BMP280;58242;51.250;-1.118;2023-02-13T06:56:45;102072.22;;;12.54
70668;BMP280;58242;51.250;-1.118;2023-02-13T06:59:11;102079.47;;;12.53
70668;BMP280;58242;51.250;-1.118;2023-02-13T07:01:36;102080.34;;;12.49
70668;BMP280;58242;51.250;-1.118;2023-02-13T07:04:01;102081.19;;;12.45
70668;BMP280;58242;51.250;-1.118;2023-02-13T07:06:27;102089.25;;;12.45
70668;BMP280;58242;51.250;-1.118;2023-02-13T07:08:52;102080.13;;;12.46
70668;BMP280;58242;51.250;-1.118;2023-02-13T07:11:22;102098.63;;;12.47
70668;BMP280;58242;51.250;-1.118;2023-02-13T07:13:48;102094.81;;;12.48
70668;BMP280;58242;51.250;-1.118;2023-02-13T07:16:13;102087.88;;;12.47
70668;BMP280;58242;51.250;-1.118;2023-02-13T07:18:39;102090.56;;;12.47
70668;BMP280;58242;51.250;-1.118;2023-02-13T07:21:04;102087.88;;;12.47
70668;BMP280;58242;51.250;-1.118;2023-02-13T07:23:29;102079.31;;;12.45
70668;BMP280;58242;51.250;-1.118;2023-02-13T07:25:58;102079.63;;;12.44
70668;BMP280;58242;51.250;-1.118;2023-02-13T07:28:24;102085.25;;;12.42
70668;BMP280;58242;51.250;-1.118;2023-02-13T07:30:49;102085.25;;;12.42
70668;BMP280;58242;51.250;-1.118;2023-02-13T07:33:15;102085.25;;;12.42
70668;BMP280;58242;51.250;-1.118;2023-02-13T07:35:46;102090.03;;;12.45
70668;BMP280;58242;51.250;-1.118;2023-02-13T07:38:11;102092.44;;;12.47
70668;BMP280;58242;51.250;-1.118;2023-02-13T07:40:36;102090.56;;;12.47
70668;BMP280;58242;51.250;-1.118;2023-02-13T07:43:02;102090.84;;;12.46
70668;BMP280;58242;51.250;-1.118;2023-02-13T07:45:27;102097.59;;;12.43
70668;BMP280;58242;51.250;-1.118;2023-02-13T07:47:56;102087.41;;;12.40
70668;BMP280;58242;51.250;-1.118;2023-02-13T07:50:21;102092.78;;;12.40
70668;BMP280;58242;51.250;-1.118;2023-02-13T07:52:58;102090.63;;;12.42
70668;BMP280;58242;51.250;-1.118;2023-02-13T07:55:23;102094.97;;;12.38
70668;BMP280;58242;51.250;-1.118;2023-02-13T07:57:49;102095.56;;;12.35
70668;BMP280;58242;51.250;-1.118;2023-02-13T08:00:15;102097.72;;;12.33
70668;BMP280;58242;51.250;-1.118;2023-02-13T08:02:41;102094.53;;;12.31
70668;BMP280;58242;51.250;-1.118;2023-02-13T08:05:06;102097.22;;;12.31
70668;BMP280;58242;51.250;-1.118;2023-02-13T08:07:33;102089.97;;;12.32
70668;BMP280;58242;51.250;-1.118;2023-02-13T08:09:59;102093.94;;;12.34
70668;BMP280;58242;51.250;-1.118;2023-02-13T08:12:42;102082.94;;;12.36
70668;BMP280;58242;51.250;-1.118;2023-02-13T08:15:10;102083.16;;;12.39
70668;BMP280;58242;51.250;-1.118;2023-02-13T08:17:36;102090.91;;;12.41
70668;BMP280;58242;51.250;-1.118;2023-02-13T08:20:01;102086.06;;;12.43
70668;BMP280;58242;51.250;-1.118;2023-02-13T08:22:27;102076.41;;;12.42
70668;BMP280;58242;51.250;-1.118;2023-02-13T08:24:52;102087.94;;;12.42
70668;BMP280;58242;51.250;-1.118;2023-02-13T08:27:18;102085.47;;;12.46
70668;BMP280;58242;51.250;-1.118;2023-02-13T08:29:44;102086.78;;;12.48
70668;BMP280;58242;51.250;-1.118;2023-02-13T08:32:09;102090.28;;;12.48
70668;BMP280;58242;51.250;-1.118;2023-02-13T08:34:34;102090.50;;;12.52
70668;BMP280;58242;51.250;-1.118;2023-02-13T08:37:01;102098.47;;;12.57
70668;BMP280;58242;51.250;-1.118;2023-02-13T08:39:26;102087.75;;;12.57
70668;BMP280;58242;51.250;-1.118;2023-02-13T08:41:51;102091.22;;;12.57
70668;BMP280;58242;51.250;-1.118;2023-02-13T08:44:17;102082.66;;;12.55
70668;BMP280;58242;51.250;-1.118;2023-02-13T08:46:42;102091.00;;;12.54
70668;BMP280;58242;51.250;-1.118;2023-02-13T08:49:07;102088.34;;;12.54
70668;BMP280;58242;51.250;-1.118;2023-02-13T08:51:33;102092.63;;;12.55
70668;BMP280;58242;51.250;-1.118;2023-02-13T08:53:58;102091.81;;;12.54
70668;BMP280;58242;51.250;-1.118;2023-02-13T08:56:23;102085.66;;;12.54
70668;BMP280;58242;51.250;-1.118;2023-02-13T08:58:49;102099.88;;;12.54
70668;BMP280;58242;51.250;-1.118;2023-02-13T09:01:15;102095.31;;;12.55
70668;BMP280;58242;51.250;-1.118;2023-02-13T09:03:41;102092.56;;;12.60
70668;BMP280;58242;51.250;-1.118;2023-02-13T09:06:06;102096.25;;;12.64
70668;BMP280;58242;51.250;-1.118;2023-02-13T09:08:34;102101.06;;;12.66
70668;BMP280;58242;51.250;-1.118;2023-02-13T09:11:02;102096.94;;;12.74
70668;BMP280;58242;51.250;-1.118;2023-02-13T09:13:29;102088.53;;;12.80
70668;BMP280;58242;51.250;-1.118;2023-02-13T09:15:58;102088.16;;;12.86
70668;BMP280;58242;51.250;-1.118;2023-02-13T09:18:24;102098.31;;;12.89
70668;BMP280;58242;51.250;-1.118;2023-02-13T09:20:49;102099.31;;;12.93
70668;BMP280;58242;51.250;-1.118;2023-02-13T09:23:15;102104.91;;;12.97
70668;BMP280;58242;51.250;-1.118;2023-02-13T09:25:40;102098.97;;;13.00
70668;BMP280;58242;51.250;-1.118;2023-02-13T09:28:05;102095.69;;;13.02
70668;BMP280;58242;51.250;-1.118;2023-02-13T09:30:31;102092.44;;;13.05
70668;BMP280;58242;51.250;-1.118;2023-02-13T09:32:56;102093.44;;;13.09
70668;BMP280;58242;51.250;-1.118;2023-02-13T09:35:21;102100.84;;;13.17
70668;BMP280;58242;51.250;-1.118;2023-02-13T09:37:47;102102.28;;;13.28
70668;BMP280;58242;51.250;-1.118;2023-02-13T09:42:47;102094.06;;;13.37
70668;BMP280;58242;51.250;-1.118;2023-02-13T09:45:15;102089.78;;;13.36
70668;BMP280;58242;51.250;-1.118;2023-02-13T09:47:43;102088.38;;;13.39
70668;BMP280;58242;51.250;-1.118;2023-02-13T09:50:22;102086.22;;;13.41
70668;BMP280;58242;51.250;-1.118;2023-02-13T09:52:50;102094.75;;;13.43
70668;BMP280;58242;51.250;-1.118;2023-02-13T09:55:27;102092.00;;;13.48
70668;BMP280;58242;51.250;-1.118;2023-02-13T10:00:53;102091.31;;;13.55
70668;BMP280;58242;51.250;-1.118;2023-02-13T10:03:45;102086.16;;;13.59
70668;BMP280;58242;51.250;-1.118;2023-02-13T10:06:18;102087.66;;;13.65
70668;BMP280;58242;51.250;-1.118;2023-02-13T10:16:53;102089.16;;;14.02
70668;BMP280;58242;51.250;-1.118;2023-02-13T10:19:40;102085.25;;;14.07
70668;BMP280;58242;51.250;-1.118;2023-02-13T10:22:13;102086.66;;;14.18
70668;BMP280;58242;51.250;-1.118;2023-02-13T10:25:15;102077.41;;;14.24
70668;BMP280;58242;51.250;-1.118;2023-02-13T10:27:45;102071.59;;;14.30
70668;BMP280;58242;51.250;-1.118;2023-02-13T10:30:55;102064.91;;;14.41
70668;BMP280;58242;51.250;-1.118;2023-02-13T10:33:25;102068.00;;;14.48
70668;BMP280;58242;51.250;-1.118;2023-02-13T10:36:26;102069.97;;;14.55
70668;BMP280;58242;51.250;-1.118;2023-02-13T10:41:50;102065.25;;;14.74
70668;BMP280;58242;51.250;-1.118;2023-02-13T10:47:26;102059.94;;;14.95
70668;BMP280;58242;51.250;-1.118;2023-02-13T10:52:52;102071.63;;;15.12
70668;BMP280;58242;51.250;-1.118;2023-02-13T10:55:54;102066.13;;;15.17
70668;BMP280;58242;51.250;-1.118;2023-02-13T11:01:08;102068.63;;;15.14
70668;BMP280;58242;51.250;-1.118;2023-02-13T11:03:37;102065.97;;;15.01
70668;BMP280;58242;51.250;-1.118;2023-02-13T11:06:05;102067.84;;;14.92
70668;BMP280;58242;51.250;-1.118;2023-02-13T11:08:40;102066.63;;;14.85
70668;BMP280;58242;51.250;-1.118;2023-02-13T11:11:36;102064.94;;;14.75
70668;BMP280;58242;51.250;-1.118;2023-02-13T11:16:43;102063.97;;;14.71
70668;BMP280;58242;51.250;-1.118;2023-02-13T11:19:19;102059.19;;;14.69
70668;BMP280;58242;51.250;-1.118;2023-02-13T11:21:49;102069.34;;;14.71
70668;BMP280;58242;51.250;-1.118;2023-02-13T11:24:22;102057.34;;;14.77
70668;BMP280;58242;51.250;-1.118;2023-02-13T11:26:52;102059.53;;;14.88
70668;BMP280;58242;51.250;-1.118;2023-02-13T11:29:30;102053.03;;;15.03
70668;BMP280;58242;51.250;-1.118;2023-02-13T11:34:39;102036.47;;;15.39
70668;BMP280;58242;51.250;-1.118;2023-02-13T11:39:46;102044.88;;;16.51
70668;BMP280;58242;51.250;-1.118;2023-02-13T11:42:19;102039.53;;;17.09
70668;BMP280;58242;51.250;-1.118;2023-02-13T11:44:50;102034.22;;;17.45
70668;BMP280;58242;51.250;-1.118;2023-02-13T11:47:29;102034.00;;;17.75
70668;BMP280;58242;51.250;-1.118;2023-02-13T11:49:55;102039.03;;;17.93
70668;BMP280;58242;51.250;-1.118;2023-02-13T11:52:41;102031.97;;;18.08
70668;BMP280;58242;51.250;-1.118;2023-02-13T11:55:42;102031.63;;;18.10
70668;BMP280;58242;51.250;-1.118;2023-02-13T12:00:41;102026.69;;;18.12
70668;BMP280;58242;51.250;-1.118;2023-02-13T12:05:59;102016.22;;;18.02
70668;BMP280;58242;51.250;-1.118;2023-02-13T12:08:25;102015.94;;;18.23
70668;BMP280;58242;51.250;-1.118;2023-02-13T12:10:51;102007.28;;;18.78
70668;BMP280;58242;51.250;-1.118;2023-02-13T12:13:26;102002.78;;;19.45
70668;BMP280;58242;51.250;-1.118;2023-02-13T12:18:56;101991.72;;;21.31
70668;BMP280;58242;51.250;-1.118;2023-02-13T12:21:40;101985.72;;;22.13
70668;BMP280;58242;51.250;-1.118;2023-02-13T12:27:16;101970.63;;;23.23
70668;BMP280;58242;51.250;-1.118;2023-02-13T12:36:18;101975.97;;;22.79
70668;BMP280;58242;51.250;-1.118;2023-02-13T12:41:53;101966.22;;;22.11
70668;BMP280;58242;51.250;-1.118;2023-02-13T12:44:42;101968.47;;;21.79
70668;BMP280;58242;51.250;-1.118;2023-02-13T12:47:21;101955.41;;;21.54
70668;BMP280;58242;51.250;-1.118;2023-02-13T12:52:54;101955.63;;;20.92
70668;BMP280;58242;51.250;-1.118;2023-02-13T13:01:00;101962.97;;;19.92
70668;BMP280;58242;51.250;-1.118;2023-02-13T13:14:01;101956.13;;;19.08
70668;BMP280;58242;51.250;-1.118;2023-02-13T13:19:43;101943.88;;;18.90
70668;BMP280;58242;51.250;-1.118;2023-02-13T13:25:19;101954.25;;;18.77
70668;BMP280;58242;51.250;-1.118;2023-02-13T13:27:49;101935.50;;;18.84
70668;BMP280;58242;51.250;-1.118;2023-02-13T13:30:29;101931.97;;;19.03
70668;BMP280;58242;51.250;-1.118;2023-02-13T13:33:02;101935.06;;;19.25
70668;BMP280;58242;51.250;-1.118;2023-02-13T13:35:29;101931.13;;;19.46
70668;BMP280;58242;51.250;-1.118;2023-02-13T13:40:49;101922.03;;;19.97
70668;BMP280;58242;51.250;-1.118;2023-02-13T13:46:20;101911.41;;;21.37
70668;BMP280;58242;51.250;-1.118;2023-02-13T13:51:29;101912.09;;;22.80
70668;BMP280;58242;51.250;-1.118;2023-02-13T14:05:18;101896.03;;;25.77
70668;BMP280;58242;51.250;-1.118;2023-02-13T14:07:46;101894.72;;;26.13
70668;BMP280;58242;51.250;-1.118;2023-02-13T14:12:58;101887.59;;;26.82
70668;BMP280;58242;51.250;-1.118;2023-02-13T14:17:59;101884.19;;;27.56
70668;BMP280;58242;51.250;-1.118;2023-02-13T14:20:41;101874.38;;;27.82
70668;BMP280;58242;51.250;-1.118;2023-02-13T14:28:35;101874.69;;;28.32
70668;BMP280;58242;51.250;-1.118;2023-02-13T14:31:06;101868.72;;;28.50
70668;BMP280;58242;51.250;-1.118;2023-02-13T14:33:33;101870.63;;;28.70
70668;BMP280;58242;51.250;-1.118;2023-02-13T14:36:20;101860.75;;;28.76
70668;BMP280;58242;51.250;-1.118;2023-02-13T14:38:54;101866.19;;;28.90
70668;BMP280;58242;51.250;-1.118;2023-02-13T14:44:33;101861.97;;;28.72
70668;BMP280;58242;51.250;-1.118;2023-02-13T14:47:02;101851.72;;;28.69
70668;BMP280;58242;51.250;-1.118;2023-02-13T14:49:31;101860.72;;;28.80
70668;BMP280;58242;51.250;-1.118;2023-02-13T14:52:04;101849.28;;;28.84
70668;BMP280;58242;51.250;-1.118;2023-02-13T14:57:07;101842.66;;;28.68
70668;BMP280;58242;51.250;-1.118;2023-02-13T14:59:35;101849.41;;;28.61
70668;BMP280;58242;51.250;-1.118;2023-02-13T15:02:22;101855.31;;;28.59
70668;BMP280;58242;51.250;-1.118;2023-02-13T15:04:54;101841.47;;;28.76
70668;BMP280;58242;51.250;-1.118;2023-02-13T15:07:22;101842.22;;;28.80
70668;BMP280;58242;51.250;-1.118;2023-02-13T15:09:58;101835.22;;;28.76
70668;BMP280;58242;51.250;-1.118;2023-02-13T15:12:31;101830.22;;;28.44
70668;BMP280;58242;51.250;-1.118;2023-02-13T15:14:57;101831.97;;;27.83
70668;BMP280;58242;51.250;-1.118;2023-02-13T15:17:27;101828.09;;;27.13
70668;BMP280;58242;51.250;-1.118;2023-02-13T15:19:58;101838.09;;;26.41
70668;BMP280;58242;51.250;-1.118;2023-02-13T15:22:28;101835.28;;;25.72
70668;BMP280;58242;51.250;-1.118;2023-02-13T15:24:55;101839.59;;;25.20
70668;BMP280;58242;51.250;-1.118;2023-02-13T15:27:29;101832.81;;;24.69
70668;BMP280;58242;51.250;-1.118;2023-02-13T15:30:18;101839.19;;;24.18
70668;BMP280;58242;51.250;-1.118;2023-02-13T15:32:43;101831.28;;;23.85
70668;BMP280;58242;51.250;-1.118;2023-02-13T15:35:21;101833.03;;;23.49
70668;BMP280;58242;51.250;-1.118;2023-02-13T15:37:46;101826.38;;;23.21
70668;BMP280;58242;51.250;-1.118;2023-02-13T15:40:23;101827.09;;;23.00
70668;BMP280;58242;51.250;-1.118;2023-02-13T15:42:50;101829.94;;;22.85
70668;BMP280;58242;51.250;-1.118;2023-02-13T15:45:16;101829.81;;;22.78
70668;BMP280;58242;51.250;-1.118;2023-02-13T15:47:46;101830.97;;;22.77
70668;BMP280;58242;51.250;-1.118;2023-02-13T15:50:55;101828.81;;;22.86
70668;BMP280;58242;51.250;-1.118;2023-02-13T15:53:04;101818.19;;;23.03
70668;BMP280;58242;51.250;-1.118;2023-02-13T15:55:34;101818.84;;;23.18
70668;BMP280;58242;51.250;-1.118;2023-02-13T15:58:01;101819.13;;;23.32
70668;BMP280;58242;51.250;-1.118;2023-02-13T16:00:33;101821.66;;;23.44
70668;BMP280;58242;51.250;-1.118;2023-02-13T16:03:01;101828.81;;;23.51
70668;BMP280;58242;51.250;-1.118;2023-02-13T16:05:29;101820.28;;;23.56
70668;BMP280;58242;51.250;-1.118;2023-02-13T16:07:58;101819.56;;;23.59
70668;BMP280;58242;51.250;-1.118;2023-02-13T16:10:31;101816.75;;;23.56
70668;BMP280;58242;51.250;-1.118;2023-02-13T16:12:58;101816.56;;;23.42
70668;BMP280;58242;51.250;-1.118;2023-02-13T16:15:27;101808.69;;;23.15
70668;BMP280;58242;51.250;-1.118;2023-02-13T16:17:54;101820.22;;;22.84
70668;BMP280;58242;51.250;-1.118;2023-02-13T16:20:23;101814.41;;;22.48
70668;BMP280;58242;51.250;-1.118;2023-02-13T16:23:03;101822.16;;;22.10
70668;BMP280;58242;51.250;-1.118;2023-02-13T16:25:37;101815.78;;;21.69
70668;BMP280;58242;51.250;-1.118;2023-02-13T16:28:13;101814.44;;;21.29
70668;BMP280;58242;51.250;-1.118;2023-02-13T16:30:43;101826.25;;;20.91
70668;BMP280;58242;51.250;-1.118;2023-02-13T16:35:46;101817.28;;;20.22
70668;BMP280;58242;51.250;-1.118;2023-02-13T16:40:59;101819.25;;;19.60
70668;BMP280;58242;51.250;-1.118;2023-02-13T16:43:39;101835.38;;;19.34
70668;BMP280;58242;51.250;-1.118;2023-02-13T16:48:46;101837.72;;;18.88
70668;BMP280;58242;51.250;-1.118;2023-02-13T16:51:12;101839.72;;;18.68
70668;BMP280;58242;51.250;-1.118;2023-02-13T16:53:38;101839.38;;;18.49